Time;durP1;ratioP1;P1;durP2;ratioP2;P2;SDS_P1;SDS_P2;PMS_P1;PMS_P2;Temp;Humidity;BMP_temperature;BMP_pressure;BME280_temperature;BME280_humidity;BME280_pressure;Samples;Min_cycle;Max_cycle;Signal;HPM_P1;HPM_P2
2022/04/12 00:02:20;;;;;;;;;11.75;10.50;;;;;10.17;51.49;-18756.84;4950903;28;10732;-70
2022/04/12 00:04:47;;;;;;;;;11.75;9.25;;;;;10.16;51.41;-18756.69;4951561;28;10814;-71
2022/04/12 00:07:15;;;;;;;;;12.00;11.50;;;;;10.17;51.59;-18756.84;4952617;28;10655;-71
2022/04/12 00:09:42;;;;;;;;;20.00;17.75;;;;;10.09;51.64;-18754.44;4951656;28;10502;-71
2022/04/12 00:12:08;;;;;;;;;20.25;18.00;;;;;10.10;51.92;-18754.72;4967307;28;10863;-72
2022/04/12 00:14:35;;;;;;;;;18.50;16.50;;;;;10.09;51.93;-18754.56;4951471;28;10729;-70
2022/04/12 00:19:46;;;;;;;;;18.25;17.50;;;;;9.99;51.79;-18751.56;4950341;28;10629;-71
2022/04/12 00:22:13;;;;;;;;;13.50;10.00;;;;;9.95;52.37;-18750.19;4952595;29;11016;-71
2022/04/12 00:24:39;;;;;;;;;10.50;9.00;;;;;9.90;52.04;-18748.69;4951419;28;10547;-71
2022/04/12 00:27:06;;;;;;;;;14.25;13.75;;;;;9.85;52.33;-18747.34;4951685;28;10500;-72
2022/04/12 00:29:33;;;;;;;;;11.25;11.25;;;;;9.99;52.32;-18751.56;4950973;28;10452;-72
2022/04/12 00:32:00;;;;;;;;;15.50;14.00;;;;;9.95;51.94;-18750.34;4952373;28;11398;-71
2022/04/12 00:34:27;;;;;;;;;17.50;16.50;;;;;9.98;52.11;-18751.25;4951212;28;10794;-71
2022/04/12 00:36:53;;;;;;;;;13.25;11.25;;;;;9.96;51.82;-18750.50;4951187;28;10921;-72
2022/04/12 00:39:19;;;;;;;;;16.50;14.00;;;;;9.99;51.39;-18751.41;4952387;28;10672;-70
2022/04/12 00:41:46;;;;;;;;;16.25;15.00;;;;;10.00;51.58;-18751.84;4952235;28;10661;-71
2022/04/12 00:44:12;;;;;;;;;16.25;15.25;;;;;9.98;51.75;-18751.25;4952404;29;11314;-71
2022/04/12 00:46:39;;;;;;;;;19.00;16.50;;;;;9.92;51.85;-18749.28;4950797;28;10581;-71
2022/04/12 00:49:05;;;;;;;;;14.75;14.75;;;;;9.96;51.80;-18750.66;4952508;28;10838;-71
2022/04/12 00:51:32;;;;;;;;;13.75;13.00;;;;;9.91;52.15;-18749.00;4951995;28;10663;-72
2022/04/12 00:53:59;;;;;;;;;16.75;12.50;;;;;9.87;51.95;-18748.09;4950429;28;10771;-71
2022/04/12 00:56:25;;;;;;;;;12.75;9.25;;;;;9.97;51.91;-18750.81;4967140;28;10962;-69
2022/04/12 00:58:53;;;;;;;;;18.75;15.75;;;;;9.99;51.63;-18751.41;4951717;28;10689;-69
2022/04/12 01:01:19;;;;;;;;;17.75;13.00;;;;;9.95;51.69;-18750.34;4951685;28;10973;-69
2022/04/12 01:03:46;;;;;;;;;16.75;15.25;;;;;10.01;51.24;-18752.00;4951425;28;10689;-69
2022/04/12 01:06:13;;;;;;;;;8.75;8.75;;;;;10.00;51.52;-18751.84;4950786;28;10906;-70
2022/04/12 01:08:39;;;;;;;;;17.00;13.75;;;;;9.96;51.14;-18750.66;4951426;28;11277;-70
2022/04/12 01:11:10;;;;;;;;;14.50;14.50;;;;;10.00;51.49;-18751.72;4966455;28;10900;-70
2022/04/12 01:13:37;;;;;;;;;10.00;9.50;;;;;10.04;51.28;-18752.91;4950289;28;10921;-71
2022/04/12 01:16:09;;;;;;;;;15.25;14.00;;;;;9.97;51.57;-18750.97;4951845;28;10719;-70
2022/04/12 01:18:37;;;;;;;;;11.50;10.75;;;;;9.93;51.43;-18749.75;4950399;29;10744;-69
2022/04/12 01:21:04;;;;;;;;;15.00;12.00;;;;;9.96;51.53;-18750.66;4965050;28;10685;-70
2022/04/12 01:23:36;;;;;;;;;17.00;13.00;;;;;9.90;51.56;-18748.69;4953765;28;10591;-71
2022/04/12 01:26:03;;;;;;;;;15.75;11.75;;;;;9.90;51.46;-18748.84;4955085;28;10869;-74
2022/04/12 01:28:29;;;;;;;;;12.00;10.75;;;;;9.90;51.92;-18748.69;4954978;28;10958;-70
2022/04/12 01:30:56;;;;;;;;;12.50;11.50;;;;;9.87;52.13;-18747.94;4953773;28;10508;-70
2022/04/12 01:33:22;;;;;;;;;15.00;14.25;;;;;9.81;51.87;-18746.28;4954624;28;10657;-69
2022/04/12 01:35:49;;;;;;;;;16.00;13.25;;;;;9.75;52.11;-18744.47;4954540;28;10854;-70
2022/04/12 01:38:15;;;;;;;;;15.50;13.75;;;;;9.79;51.86;-18745.66;4952059;28;10660;-71
2022/04/12 01:40:42;;;;;;;;;9.50;9.25;;;;;9.82;51.75;-18746.44;4968480;28;10639;-70
2022/04/12 01:43:10;;;;;;;;;13.50;13.50;;;;;9.77;52.35;-18744.91;4954577;28;10819;-70
2022/04/12 01:45:36;;;;;;;;;10.50;10.50;;;;;9.75;52.32;-18744.47;4954537;28;10683;-69
2022/04/12 01:48:03;;;;;;;;;14.25;14.25;;;;;9.69;52.99;-18742.66;4954406;28;10773;-71
2022/04/12 01:50:30;;;;;;;;;17.75;15.75;;;;;9.72;52.73;-18743.56;4954473;28;10492;-72
2022/04/12 01:52:56;;;;;;;;;12.25;10.25;;;;;9.72;52.61;-18743.41;4953509;28;10733;-72
2022/04/12 01:55:22;;;;;;;;;17.75;15.25;;;;;9.70;52.89;-18742.97;4954387;28;10578;-69
2022/04/12 01:57:51;;;;;;;;;11.00;9.50;;;;;9.69;52.96;-18742.66;4953136;28;10923;-69
2022/04/12 02:00:17;;;;;;;;;14.50;13.50;;;;;9.70;53.32;-18742.97;4953158;28;10569;-70
2022/04/12 02:02:44;;;;;;;;;10.75;10.75;;;;;9.70;53.88;-18742.81;4954697;28;10670;-71
2022/04/12 02:05:10;;;;;;;;;10.75;10.75;;;;;9.67;53.47;-18742.06;4954057;28;10762;-71
2022/04/12 02:07:37;;;;;;;;;12.00;11.75;;;;;9.64;53.60;-18741.00;4953785;28;10718;-71
2022/04/12 02:10:05;;;;;;;;;14.50;12.00;;;;;9.62;53.91;-18740.38;4953352;28;10836;-70
2022/04/12 02:12:31;;;;;;;;;8.00;7.25;;;;;9.55;54.05;-18738.44;4953135;28;10763;-71
2022/04/12 02:14:59;;;;;;;;;11.50;8.50;;;;;9.64;53.53;-18741.00;4954584;28;10609;-70
2022/04/12 02:17:26;;;;;;;;;11.00;11.00;;;;;9.59;54.06;-18739.47;4953991;28;10567;-71
2022/04/12 02:19:52;;;;;;;;;11.50;11.50;;;;;9.58;54.14;-18739.34;4952161;28;10738;-70
2022/04/12 02:22:18;;;;;;;;;12.00;9.75;;;;;9.60;53.79;-18739.94;4953099;28;10981;-73
2022/04/12 02:24:45;;;;;;;;;16.00;13.25;;;;;9.50;53.71;-18736.91;4954051;28;11453;-71
2022/04/12 02:27:12;;;;;;;;;14.25;9.00;;;;;9.49;54.07;-18736.63;4968210;28;10760;-71
2022/04/12 02:29:39;;;;;;;;;4.25;4.25;;;;;9.51;54.08;-18737.22;4953696;28;10791;-70
2022/04/12 02:32:06;;;;;;;;;13.50;10.75;;;;;9.53;54.27;-18737.81;4953969;28;10528;-71
2022/04/12 02:34:33;;;;;;;;;13.25;10.50;;;;;9.49;54.14;-18736.78;4952439;28;12528;-70
2022/04/12 02:36:59;;;;;;;;;7.50;7.50;;;;;9.51;54.27;-18737.22;4952865;28;10601;-71
2022/04/12 02:39:26;;;;;;;;;15.25;14.75;;;;;9.43;54.33;-18734.97;4953925;28;10695;-71
2022/04/12 02:41:52;;;;;;;;;8.25;8.00;;;;;9.50;54.38;-18737.06;4953743;28;10737;-70
2022/04/12 02:44:19;;;;;;;;;14.75;12.75;;;;;9.43;54.28;-18734.81;4953114;28;10686;-71
2022/04/12 02:46:45;;;;;;;;;16.50;12.00;;;;;9.43;54.62;-18734.97;4953390;28;10696;-72
2022/04/12 02:49:12;;;;;;;;;7.25;6.25;;;;;9.45;54.34;-18735.56;4953287;28;10653;-71
2022/04/12 02:51:39;;;;;;;;;13.50;13.50;;;;;9.38;54.41;-18733.44;4953522;28;10667;-69
2022/04/12 02:54:05;;;;;;;;;10.50;9.75;;;;;9.32;54.32;-18731.47;4952769;28;10601;-69
2022/04/12 02:56:31;;;;;;;;;14.75;10.00;;;;;9.36;54.87;-18732.69;4953355;28;10568;-72
2022/04/12 02:58:58;;;;;;;;;11.00;11.00;;;;;9.33;54.70;-18731.78;4952431;28;10652;-70
2022/04/12 03:01:25;;;;;;;;;13.00;9.50;;;;;9.30;55.41;-18730.88;4952584;28;10664;-70
2022/04/12 03:03:52;;;;;;;;;10.00;10.00;;;;;9.19;55.40;-18727.88;4950963;28;10793;-71
2022/04/12 03:06:18;;;;;;;;;9.25;9.00;;;;;9.22;55.74;-18728.75;4953098;28;10746;-70
2022/04/12 03:08:44;;;;;;;;;11.00;7.50;;;;;9.08;56.08;-18724.53;4953150;28;10656;-70
2022/04/12 03:11:11;;;;;;;;;10.25;9.25;;;;;9.15;56.29;-18726.50;4952980;28;10623;-70
2022/04/12 03:13:38;;;;;;;;;13.50;10.25;;;;;9.00;56.82;-18722.13;4950871;28;10716;-70
2022/04/12 03:16:05;;;;;;;;;14.00;12.50;;;;;9.06;57.05;-18723.78;4952238;28;10560;-71
2022/04/12 03:18:35;;;;;;;;;7.00;7.00;;;;;8.94;57.25;-18720.47;4952846;28;10818;-72
2022/04/12 03:21:03;;;;;;;;;16.00;11.00;;;;;8.85;57.55;-18717.75;4946728;28;10708;-70
2022/04/12 03:23:29;;;;;;;;;14.75;14.75;;;;;8.82;57.81;-18716.69;4940231;28;10901;-70
2022/04/12 03:25:56;;;;;;;;;16.25;12.50;;;;;8.86;56.80;-18717.91;4953039;28;11082;-70
2022/04/12 03:28:22;;;;;;;;;11.50;10.00;;;;;8.83;57.98;-18717.00;4952455;28;11026;-70
2022/04/12 03:30:48;;;;;;;;;14.50;13.75;;;;;8.81;57.75;-18716.53;4953279;28;10894;-71
2022/04/12 03:33:15;;;;;;;;;17.25;11.75;;;;;8.81;57.66;-18716.38;4951820;28;10832;-70
2022/04/12 03:35:43;;;;;;;;;12.00;12.00;;;;;8.82;58.04;-18716.69;4953163;28;10849;-71
2022/04/12 03:38:09;;;;;;;;;15.75;13.25;;;;;8.78;57.92;-18715.63;4952485;28;10924;-70
2022/04/12 03:40:36;;;;;;;;;10.50;10.50;;;;;8.71;57.84;-18713.53;4953839;28;11272;-71
2022/04/12 03:43:04;;;;;;;;;10.75;10.00;;;;;8.74;57.63;-18714.28;4952626;28;10838;-70
2022/04/12 03:45:32;;;;;;;;;12.25;11.75;;;;;8.73;57.58;-18714.13;4952805;28;10969;-70
2022/04/12 03:47:59;;;;;;;;;16.25;13.00;;;;;8.68;57.88;-18712.63;4951321;28;10971;-69
2022/04/12 03:50:26;;;;;;;;;18.00;13.25;;;;;8.70;57.91;-18713.22;4953328;28;11157;-69
2022/04/12 03:52:53;;;;;;;;;9.00;7.00;;;;;8.74;57.50;-18714.28;4948541;28;11183;-70
2022/04/12 03:55:46;;;;;;;;;10.25;10.25;;;;;8.72;57.57;-18713.81;4951896;28;10817;-70
2022/04/12 03:58:08;;;;;;;;;11.00;10.50;;;;;8.68;57.99;-18712.47;4951984;28;11742;-69
2022/04/12 04:00:35;;;;;;;;;11.75;9.00;;;;;8.68;58.09;-18712.63;4952704;28;11407;-70
2022/04/12 04:03:02;;;;;;;;;18.00;16.75;;;;;8.66;58.00;-18712.00;4952754;28;10855;-71
2022/04/12 04:05:29;;;;;;;;;10.50;10.50;;;;;8.72;57.84;-18713.66;4952276;28;11157;-69
2022/04/12 04:07:56;;;;;;;;;9.75;9.00;;;;;8.73;57.85;-18713.97;4952373;28;11030;-71
2022/04/12 04:10:22;;;;;;;;;12.00;11.75;;;;;8.66;58.18;-18711.84;4951362;28;11038;-70
2022/04/12 04:12:49;;;;;;;;;16.00;13.50;;;;;8.74;57.80;-18714.28;4952518;28;11145;-70
2022/04/12 04:15:15;;;;;;;;;16.00;13.75;;;;;8.69;57.86;-18712.75;4952727;28;11098;-69
2022/04/12 04:17:44;;;;;;;;;15.75;14.75;;;;;8.68;58.00;-18712.63;4952704;28;11080;-71
2022/04/12 04:20:12;;;;;;;;;14.25;14.25;;;;;8.73;57.87;-18713.97;4952398;28;10925;-72
2022/04/12 04:22:40;;;;;;;;;11.25;11.25;;;;;8.74;57.78;-18714.28;4950315;28;11123;-71
2022/04/12 04:25:12;;;;;;;;;11.25;11.25;;;;;8.78;57.70;-18715.63;4966994;28;11549;-71
2022/04/12 04:27:39;;;;;;;;;12.00;10.00;;;;;8.81;57.05;-18716.38;4951805;28;10902;-69
2022/04/12 04:30:10;;;;;;;;;14.75;14.75;;;;;8.83;57.51;-18717.13;4952274;28;11514;-71
2022/04/12 04:32:38;;;;;;;;;13.75;13.75;;;;;8.86;56.49;-18717.91;4951928;28;10721;-71
2022/04/12 04:35:06;;;;;;;;;12.75;12.75;;;;;8.83;56.79;-18717.00;4952357;28;10853;-72
2022/04/12 04:37:32;;;;;;;;;11.75;11.75;;;;;8.94;56.86;-18720.31;4949790;28;11067;-70
2022/04/12 04:39:58;;;;;;;;;16.00;14.25;;;;;8.85;57.04;-18717.75;4952097;29;10894;-71
2022/04/12 04:42:27;;;;;;;;;12.50;11.75;;;;;8.77;57.16;-18715.31;4952092;29;11058;-71
2022/04/12 04:44:53;;;;;;;;;11.00;11.00;;;;;8.94;57.50;-18720.31;4951054;29;11457;-71
2022/04/12 04:47:19;;;;;;;;;10.25;8.50;;;;;8.97;56.90;-18721.06;4950173;28;10692;-71
2022/04/12 04:49:46;;;;;;;;;10.50;7.75;;;;;8.99;56.91;-18721.66;4952129;28;10920;-71
2022/04/12 04:52:12;;;;;;;;;12.50;12.25;;;;;8.98;57.26;-18721.38;4950757;28;10890;-70
2022/04/12 04:54:39;;;;;;;;;11.00;11.00;;;;;8.99;56.98;-18721.81;4944090;28;10840;-72
2022/04/12 04:57:05;;;;;;;;;16.50;13.00;;;;;8.97;56.70;-18721.06;4967269;28;11652;-71
2022/04/12 04:59:32;;;;;;;;;14.50;13.50;;;;;8.96;56.96;-18720.75;4953928;28;10913;-70
2022/04/12 05:01:58;;;;;;;;;13.50;13.50;;;;;8.94;57.03;-18720.47;4955426;28;10993;-71
2022/04/12 05:04:25;;;;;;;;;19.00;14.75;;;;;8.86;57.29;-18717.91;4955207;28;10970;-70
2022/04/12 05:06:52;;;;;;;;;14.75;13.75;;;;;8.79;57.50;-18715.94;4953223;28;10957;-70
2022/04/12 05:09:18;;;;;;;;;17.50;15.25;;;;;8.77;57.50;-18715.31;4954915;28;10999;-71
2022/04/12 05:11:44;;;;;;;;;17.50;14.50;;;;;8.76;57.86;-18715.03;4955145;28;11128;-69
2022/04/12 05:14:11;;;;;;;;;15.00;12.50;;;;;8.72;57.97;-18713.81;4955283;28;11086;-70
2022/04/12 05:16:37;;;;;;;;;15.00;15.00;;;;;8.69;57.70;-18712.91;4954768;28;10960;-71
2022/04/12 05:19:04;;;;;;;;;18.25;15.00;;;;;8.66;57.88;-18711.84;4954806;28;11145;-72
2022/04/12 05:21:30;;;;;;;;;17.50;13.25;;;;;8.69;57.61;-18712.91;4969008;28;10999;-71
2022/04/12 05:23:57;;;;;;;;;16.25;11.00;;;;;8.59;57.98;-18710.03;4947046;28;10906;-71
2022/04/12 05:26:23;;;;;;;;;19.50;16.75;;;;;8.59;57.89;-18709.88;4948099;28;10889;-71
2022/04/12 05:28:50;;;;;;;;;17.25;14.75;;;;;8.52;58.32;-18707.94;4950768;28;11087;-71
2022/04/12 05:31:16;;;;;;;;;16.25;14.00;;;;;8.59;58.04;-18710.03;4955053;28;10868;-72
2022/04/12 05:33:43;;;;;;;;;12.50;11.50;;;;;8.57;58.14;-18709.44;4952164;28;11020;-71
2022/04/12 05:36:09;;;;;;;;;14.50;13.25;;;;;8.59;58.32;-18709.88;4949854;28;11168;-70
2022/04/12 05:38:36;;;;;;;;;14.50;13.00;;;;;8.64;57.91;-18711.41;4953557;28;10895;-70
2022/04/12 05:41:02;;;;;;;;;14.25;14.25;;;;;8.61;58.04;-18710.66;4954848;28;11069;-71
2022/04/12 05:43:29;;;;;;;;;16.50;13.75;;;;;8.60;58.13;-18710.34;4951604;28;10984;-70
2022/04/12 05:45:55;;;;;;;;;15.00;12.00;;;;;8.60;57.82;-18710.34;4954637;28;11009;-70
2022/04/12 05:48:22;;;;;;;;;18.25;13.50;;;;;8.70;57.96;-18713.06;4952579;28;11141;-70
2022/04/12 05:50:49;;;;;;;;;10.25;8.00;;;;;8.66;57.79;-18711.84;4954947;28;11062;-70
2022/04/12 05:53:15;;;;;;;;;9.25;8.50;;;;;8.78;57.41;-18715.63;4954050;28;10804;-72
2022/04/12 05:55:41;;;;;;;;;16.75;14.00;;;;;9.03;57.09;-18722.88;4966409;28;10960;-70
2022/04/12 05:58:08;;;;;;;;;12.00;10.25;;;;;9.01;56.81;-18722.28;4953501;28;11228;-70
2022/04/12 06:00:35;;;;;;;;;12.75;12.00;;;;;9.28;56.55;-18730.28;4954562;28;11078;-70
2022/04/12 06:03:04;;;;;;;;;10.25;10.00;;;;;9.16;56.57;-18726.94;4949534;28;11057;-70
2022/04/12 06:05:34;;;;;;;;;12.75;12.75;;;;;9.08;56.52;-18724.38;4953155;28;10844;-70
2022/04/12 06:08:02;;;;;;;;;12.75;12.00;;;;;9.11;56.73;-18725.28;4953540;28;10803;-70
2022/04/12 06:10:29;;;;;;;;;12.00;12.00;;;;;9.24;56.73;-18729.22;4954278;28;10914;-71
2022/04/12 06:12:58;;;;;;;;;14.25;13.00;;;;;9.89;54.99;-18748.53;4968478;28;10818;-71
2022/04/12 06:15:25;;;;;;;;;12.75;10.25;;;;;10.38;53.56;-18763.19;4954121;28;10914;-70
2022/04/12 06:17:52;;;;;;;;;19.25;17.25;;;;;10.40;52.94;-18763.78;4951831;28;10835;-70
2022/04/12 06:20:19;;;;;;;;;9.25;9.25;;;;;10.62;52.26;-18770.28;4953179;28;10850;-71
2022/04/12 06:22:46;;;;;;;;;11.25;10.50;;;;;10.53;51.98;-18767.56;4953623;28;10566;-70
2022/04/12 06:25:19;;;;;;;;;18.00;15.75;;;;;10.63;52.27;-18770.56;4952172;28;10652;-71
2022/04/12 06:27:51;;;;;;;;;15.00;15.00;;;;;10.82;51.84;-18776.16;4952880;28;10696;-70
2022/04/12 06:30:26;;;;;;;;;16.50;14.75;;;;;10.88;51.48;-18777.81;4952350;28;10578;-70
2022/04/12 06:32:53;;;;;;;;;16.00;16.00;;;;;10.84;51.72;-18776.75;4953174;28;10678;-70
2022/04/12 06:35:20;;;;;;;;;10.50;8.25;;;;;10.97;51.56;-18780.53;4953486;28;10771;-72
2022/04/12 06:37:50;;;;;;;;;19.25;16.75;;;;;10.98;50.78;-18780.84;4953557;28;10553;-70
2022/04/12 06:40:18;;;;;;;;;16.25;16.25;;;;;10.85;51.18;-18776.91;4952747;28;10718;-70
2022/04/12 06:42:44;;;;;;;;;12.50;12.50;;;;;10.95;50.97;-18779.94;4952333;28;10708;-72
2022/04/12 06:45:11;;;;;;;;;18.00;15.00;;;;;11.01;50.65;-18781.75;4953371;28;10603;-71
2022/04/12 06:47:39;;;;;;;;;13.00;13.00;;;;;11.18;51.42;-18786.72;4952937;28;10431;-71
2022/04/12 06:50:06;;;;;;;;;14.25;14.25;;;;;11.35;50.41;-18792.00;4952664;28;10643;-71
2022/04/12 06:52:33;;;;;;;;;15.75;14.50;;;;;11.48;50.15;-18795.63;4950626;28;10682;-71
2022/04/12 06:55:00;;;;;;;;;10.75;10.75;;;;;11.55;49.85;-18797.88;4978840;23;10518;-70
2022/04/12 06:57:34;;;;;;;;;16.25;14.25;;;;;11.79;49.63;-18804.81;4971788;28;10474;-71
2022/04/12 07:00:02;;;;;;;;;13.00;10.25;;;;;12.39;56.93;-18822.75;4970497;28;10647;-71
2022/04/12 07:02:29;;;;;;;;;14.25;14.00;;;;;12.07;48.99;-18813.25;4972306;28;10418;-71
2022/04/12 07:04:55;;;;;;;;;11.25;10.50;;;;;12.18;48.54;-18816.44;4972440;28;11373;-71
2022/04/12 07:07:22;;;;;;;;;11.00;11.00;;;;;12.14;49.32;-18815.38;4957515;28;10381;-70
2022/04/12 07:09:49;;;;;;;;;17.00;13.00;;;;;12.07;48.57;-18813.25;4949347;28;10257;-70
2022/04/12 07:12:15;;;;;;;;;13.50;12.25;;;;;12.39;48.57;-18822.75;4974803;28;11096;-71
2022/04/12 07:14:42;;;;;;;;;14.25;13.00;;;;;12.53;47.45;-18826.97;4936374;28;10230;-71
2022/04/12 07:17:08;;;;;;;;;15.50;10.75;;;;;12.47;48.26;-18825.16;4944386;28;10393;-71
2022/04/12 07:19:34;;;;;;;;;14.00;14.00;;;;;12.36;47.76;-18821.69;4944528;28;10296;-72
2022/04/12 07:22:01;;;;;;;;;19.50;17.75;;;;;12.41;48.10;-18823.22;4943309;28;10366;-72
2022/04/12 07:24:27;;;;;;;;;9.00;8.75;;;;;12.62;48.44;-18829.69;4952273;28;10540;-70
2022/04/12 07:26:54;;;;;;;;;13.00;12.25;;;;;12.57;48.06;-18828.19;4942868;28;10318;-72
2022/04/12 07:29:20;;;;;;;;;15.75;14.25;;;;;12.64;48.22;-18830.13;4945583;28;10240;-71
2022/04/12 07:31:47;;;;;;;;;15.75;13.25;;;;;12.74;48.17;-18833.00;4952933;28;10572;-71
2022/04/12 07:34:14;;;;;;;;;17.00;15.75;;;;;12.54;48.04;-18827.13;4955745;28;10534;-71
2022/04/12 07:36:46;;;;;;;;;15.00;12.50;;;;;12.65;48.63;-18830.28;4954556;28;11118;-70
2022/04/12 07:39:15;;;;;;;;;14.25;11.00;;;;;12.74;48.44;-18833.00;4962229;28;10228;-71
2022/04/12 07:41:42;;;;;;;;;9.75;9.75;;;;;13.00;48.01;-18840.84;4956462;28;10935;-70
2022/04/12 07:44:09;;;;;;;;;17.25;12.25;;;;;13.01;48.01;-18841.13;4955513;28;10121;-71
2022/04/12 07:46:35;;;;;;;;;12.75;11.75;;;;;12.94;47.74;-18839.03;4955523;28;10181;-72
2022/04/12 07:49:02;;;;;;;;;12.50;12.50;;;;;13.18;47.29;-18846.25;4951944;28;10946;-71
2022/04/12 07:51:28;;;;;;;;;17.00;14.50;;;;;13.25;46.91;-18848.22;4955943;28;9947;-71
2022/04/12 07:53:55;;;;;;;;;12.75;12.75;;;;;13.17;46.85;-18845.97;4955521;28;10095;-70
2022/04/12 07:56:21;;;;;;;;;17.75;17.00;;;;;13.26;46.53;-18848.53;4949401;28;10184;-70
2022/04/12 07:58:48;;;;;;;;;10.25;10.25;;;;;13.42;46.33;-18853.34;4949717;28;10298;-72
2022/04/12 08:01:14;;;;;;;;;14.50;14.00;;;;;13.64;46.22;-18859.69;4951290;28;10068;-70
2022/04/12 08:03:41;;;;;;;;;13.50;13.00;;;;;13.72;46.16;-18862.09;4950709;28;10032;-72
2022/04/12 08:06:08;;;;;;;;;16.75;14.50;;;;;13.71;45.86;-18861.94;4950181;28;10193;-71
2022/04/12 08:08:35;;;;;;;;;9.25;9.25;;;;;13.89;45.50;-18867.06;4948261;28;10083;-71
2022/04/12 08:11:02;;;;;;;;;14.75;14.75;;;;;14.07;45.57;-18872.47;4951048;28;9873;-71
2022/04/12 08:13:30;;;;;;;;;13.25;11.50;;;;;14.22;45.09;-18876.84;4957560;28;9861;-71
2022/04/12 08:15:57;;;;;;;;;11.75;10.00;;;;;14.49;45.98;-18884.81;4953023;28;10003;-70
2022/04/12 08:18:24;;;;;;;;;13.75;13.75;;;;;14.83;44.83;-18894.91;4946167;28;9767;-71
2022/04/12 08:20:51;;;;;;;;;16.50;14.00;;;;;14.86;44.12;-18895.97;4950859;28;9891;-71
2022/04/12 08:23:20;;;;;;;;;15.25;13.00;;;;;15.03;43.58;-18900.94;4952705;28;9798;-72
2022/04/12 08:25:46;;;;;;;;;12.25;11.25;;;;;15.14;43.83;-18904.09;4954498;28;9865;-72
2022/04/12 08:28:13;;;;;;;;;8.25;8.00;;;;;15.12;44.17;-18903.63;4948776;28;9836;-71
2022/04/12 08:30:39;;;;;;;;;10.25;10.25;;;;;15.17;43.33;-18905.13;4955949;28;9760;-70
2022/04/12 08:33:06;;;;;;;;;10.00;7.00;;;;;15.50;42.88;-18914.91;4970479;28;9808;-70
2022/04/12 08:35:34;;;;;;;;;14.50;11.50;;;;;15.64;42.58;-18919.13;4948042;28;9420;-70
2022/04/12 08:38:01;;;;;;;;;14.25;13.25;;;;;15.90;42.41;-18926.66;4952087;28;9587;-70
2022/04/12 08:40:28;;;;;;;;;12.25;10.75;;;;;16.03;42.06;-18930.56;4952828;28;10609;-69
2022/04/12 08:42:55;;;;;;;;;9.00;9.00;;;;;16.21;41.88;-18935.97;4953463;28;9766;-70
2022/04/12 08:45:21;;;;;;;;;16.00;11.33;;;;;16.04;41.90;-18930.72;4968730;28;9618;-70
2022/04/12 08:47:50;;;;;;;;;8.67;8.67;;;;;16.34;41.24;-18939.75;4960944;28;9339;-70
2022/04/12 08:50:19;;;;;;;;;10.75;10.50;;;;;16.51;41.03;-18944.84;4958662;28;10114;-70
2022/04/12 08:52:46;;;;;;;;;11.33;11.33;;;;;17.06;40.27;-18961.09;4953008;28;9635;-70
2022/04/12 08:55:14;;;;;;;;;10.00;10.00;;;;;16.71;41.06;-18950.72;4959672;28;9406;-69
2022/04/12 08:57:40;;;;;;;;;17.67;13.00;;;;;16.63;40.56;-18948.31;4949487;28;9500;-69
2022/04/12 09:00:08;;;;;;;;;10.33;10.33;;;;;16.89;41.36;-18956.13;4956783;28;10243;-70
2022/04/12 09:02:34;;;;;;;;;7.67;7.67;;;;;16.95;40.86;-18957.63;4956022;28;9429;-71
2022/04/12 09:05:01;;;;;;;;;7.00;7.00;;;;;17.07;40.71;-18961.38;4963272;28;9285;-69
2022/04/12 09:07:28;;;;;;;;;9.67;9.33;;;;;17.29;40.52;-18967.84;4959662;28;9396;-72
2022/04/12 09:10:07;;;;;;;;;8.00;7.33;;;;;17.56;41.28;-18975.81;4965078;28;9186;-70
2022/04/12 09:12:34;;;;;;;;;8.33;7.67;;;;;18.00;40.87;-18988.91;4954137;28;9307;-71
2022/04/12 09:15:01;;;;;;;;;9.00;8.33;;;;;18.01;39.29;-18989.19;4961296;28;9504;-71
2022/04/12 09:17:33;;;;;;;;;7.33;7.33;;;;;18.29;39.35;-18997.31;4952595;28;10132;-71
2022/04/12 09:20:00;;;;;;;;;9.67;9.00;;;;;18.19;38.28;-18994.44;4959507;28;8994;-71
2022/04/12 09:22:28;;;;;;;;;9.00;8.00;;;;;18.31;38.41;-18998.06;4966250;28;9093;-71
2022/04/12 09:24:59;;;;;;;;;7.33;6.33;;;;;18.37;38.71;-18999.72;4953392;28;9185;-71
2022/04/12 09:27:28;;;;;;;;;6.67;6.67;;;;;18.41;37.92;-19000.91;4953877;28;9018;-71
2022/04/12 09:30:01;;;;;;;;;10.67;9.33;;;;;18.58;38.25;-19006.00;4952655;28;8978;-71
2022/04/12 09:32:30;;;;;;;;;7.67;6.00;;;;;18.44;38.78;-19001.81;4953719;28;9233;-71
2022/04/12 09:34:56;;;;;;;;;9.00;9.00;;;;;18.49;38.57;-19003.16;4952723;28;9065;-70
2022/04/12 09:37:26;;;;;;;;;11.33;9.33;;;;;18.23;38.74;-18995.50;4953810;28;8833;-71
2022/04/12 09:39:54;;;;;;;;;8.25;6.50;;;;;18.18;38.95;-18994.16;4952838;28;8966;-69
2022/04/12 09:42:43;;;;;;;;;9.00;7.67;;;;;18.02;39.28;-18989.50;4958334;28;8961;-70
2022/04/12 09:45:23;;;;;;;;;9.33;6.67;;;;;18.16;39.51;-18993.56;4957452;28;8941;-70
2022/04/12 09:48:04;;;;;;;;;7.00;6.00;;;;;18.74;38.97;-19010.69;4952811;28;9019;-70
2022/04/12 09:50:51;;;;;;;;;5.50;5.50;;;;;18.99;39.02;-19018.19;4951516;28;8952;-70
2022/04/12 09:53:18;;;;;;;;;11.33;9.00;;;;;19.08;38.01;-19020.72;4953079;28;8856;-69
2022/04/12 09:55:51;;;;;;;;;9.50;7.50;;;;;19.06;37.73;-19020.13;4965781;28;9060;-70
2022/04/12 09:58:21;;;;;;;;;4.50;4.50;;;;;19.11;38.49;-19021.63;4955723;28;9025;-69
2022/04/12 10:00:48;;;;;;;;;8.75;8.00;;;;;19.32;38.30;-19027.78;4954574;28;8876;-68
2022/04/12 10:03:17;;;;;;;;;5.50;5.50;;;;;19.64;37.82;-19037.41;4957627;28;8864;-70
2022/04/12 10:05:45;;;;;;;;;6.67;6.67;;;;;19.62;36.83;-19036.66;4952543;28;9039;-70
2022/04/12 10:08:15;;;;;;;;;4.50;4.50;;;;;19.89;37.32;-19044.59;4972174;28;8958;-70
2022/04/12 10:10:44;;;;;;;;;5.50;5.00;;;;;19.76;37.56;-19040.69;4954498;28;8842;-70
2022/04/12 10:13:12;;;;;;;;;7.75;6.00;;;;;19.57;37.48;-19035.28;4957176;28;8932;-69
2022/04/12 10:15:40;;;;;;;;;4.50;4.50;;;;;19.72;37.69;-19039.50;4950843;28;8830;-70
2022/04/12 10:18:07;;;;;;;;;4.75;4.75;;;;;19.50;37.86;-19033.19;4956870;28;8838;-69
2022/04/12 10:20:33;;;;;;;;;9.25;7.00;;;;;19.57;38.61;-19035.28;4965336;28;8864;-72
2022/04/12 10:23:01;;;;;;;;;8.75;6.75;;;;;19.55;38.00;-19034.69;4957396;28;8844;-70
2022/04/12 10:25:28;;;;;;;;;7.25;7.00;;;;;19.55;37.98;-19034.69;4954259;28;8947;-70
2022/04/12 10:27:59;;;;;;;;;7.25;7.25;;;;;19.85;38.48;-19043.41;4957395;28;8858;-69
2022/04/12 10:30:27;;;;;;;;;8.00;8.00;;;;;19.82;37.28;-19042.66;4954471;28;9586;-71
2022/04/12 10:33:28;;;;;;;;;7.00;6.00;;;;;19.72;37.76;-19039.50;4957971;28;8853;-70
2022/04/12 10:35:55;;;;;;;;;11.00;10.25;;;;;19.61;38.19;-19036.34;4949050;28;8857;-69
2022/04/12 10:38:23;;;;;;;;;7.00;7.00;;;;;19.78;38.17;-19041.28;4958690;28;8905;-70
2022/04/12 10:40:52;;;;;;;;;7.25;6.50;;;;;20.07;37.06;-19049.84;4958002;28;8824;-70
2022/04/12 10:43:25;;;;;;;;;5.00;5.00;;;;;20.03;37.37;-19048.78;4959174;28;8853;-70
2022/04/12 10:45:51;;;;;;;;;9.00;8.25;;;;;20.32;37.43;-19057.19;4959805;28;9102;-69
2022/04/12 10:48:26;;;;;;;;;5.00;5.00;;;;;20.54;38.21;-19063.94;4960812;28;8935;-70
2022/04/12 10:50:55;;;;;;;;;9.50;9.00;;;;;20.23;37.33;-19054.66;4962410;28;9275;-71
2022/04/12 10:53:37;;;;;;;;;4.75;4.25;;;;;20.01;38.60;-19048.19;4960302;28;8960;-70
2022/04/12 10:56:09;;;;;;;;;10.00;7.50;;;;;19.83;38.79;-19042.94;4957752;28;8951;-70
2022/04/12 10:58:36;;;;;;;;;7.00;7.00;;;;;19.68;38.10;-19038.44;4957395;28;8866;-70
2022/04/12 11:01:04;;;;;;;;;5.00;5.00;;;;;19.72;38.26;-19039.66;4957650;28;8954;-70
2022/04/12 11:03:40;;;;;;;;;4.00;4.00;;;;;20.01;38.87;-19048.19;4953501;28;8891;-70
2022/04/12 11:06:26;;;;;;;;;5.00;5.00;;;;;19.70;38.66;-19039.03;4951445;28;8844;-70
2022/04/12 11:08:56;;;;;;;;;4.00;4.00;;;;;19.69;39.55;-19038.59;4956382;28;8934;-71
2022/04/12 11:11:26;;;;;;;;;3.00;3.00;;;;;19.63;39.69;-19036.94;4950910;28;8828;-70
2022/04/12 11:13:54;;;;;;;;;3.25;3.25;;;;;19.33;40.20;-19028.25;4956840;28;8956;-69
2022/04/12 11:16:26;;;;;;;;;7.75;4.75;;;;;19.06;39.91;-19020.28;4951602;28;8921;-70
2022/04/12 11:18:55;;;;;;;;;6.50;3.50;;;;;19.08;40.76;-19020.59;4952536;28;8838;-70
2022/04/12 11:21:26;;;;;;;;;2.00;2.00;;;;;19.03;40.56;-19019.38;4952459;28;8924;-70
2022/04/12 11:24:06;;;;;;;;;5.00;5.00;;;;;19.09;40.46;-19021.03;4949010;28;8830;-70
2022/04/12 11:26:48;;;;;;;;;6.00;3.75;;;;;18.99;40.30;-19018.19;4952160;28;8884;-70